Time;durP1;ratioP1;P1;durP2;ratioP2;P2;SDS_P1;SDS_P2;PMS_P1;PMS_P2;Temp;Humidity;BMP_temperature;BMP_pressure;BME280_temperature;BME280_humidity;BME280_pressure;Samples;Min_cycle;Max_cycle;Signal;HPM_P1;HPM_P2
2022/05/17 00:01:57;;;;;;;;;;;;;;;;;;4993501;28;19926;-75
2022/05/17 00:04:23;;;;;;;;;;;;;;;;;;5009937;28;19929;-75
2022/05/17 00:06:49;;;;;;;;;;;;;;;;;;5009204;28;19932;-75
2022/05/17 00:09:16;;;;;;;;;;;;;;;;;;4994281;28;20012;-75
2022/05/17 00:11:44;;;;;;;;;;;;;;;;;;4993637;28;19921;-75
2022/05/17 00:14:10;;;;;;;;;;;;;;;;;;5008967;28;20420;-76
2022/05/17 00:16:36;;;;;;;;;;;;;;;;;;4993798;28;19921;-76
2022/05/17 00:19:02;;;;;;;;;;;;;;;;;;5008800;28;19965;-75
2022/05/17 00:21:28;;;;;;;;;;;;;;;;;;5008681;28;19921;-75
2022/05/17 00:23:54;;;;;;;;;;;;;;;;;;4993509;28;19922;-75
2022/05/17 00:26:21;;;;;;;;;;;;;;;;;;4995012;28;19991;-75
2022/05/17 00:28:47;;;;;;;;;;;;;;;;;;4992603;28;19925;-76
2022/05/17 00:31:13;;;;;;;;;;;;;;;;;;5009900;28;19921;-75
2022/05/17 00:33:39;;;;;;;;;;;;;;;;;;5009633;28;19922;-75
2022/05/17 00:36:04;;;;;;;;;;;;;;;;;;4993995;28;19945;-75
2022/05/17 00:38:30;;;;;;;;;;;;;;;;;;4994207;28;19929;-75
2022/05/17 00:40:56;;;;;;;;;;;;;;;;;;4993909;28;19932;-75
2022/05/17 00:43:22;;;;;;;;;;;;;;;;;;5009028;28;19929;-75
2022/05/17 00:45:48;;;;;;;;;;;;;;;;;;4993181;28;19929;-75
2022/05/17 00:48:14;;;;;;;;;;;;;;;;;;4994099;28;20012;-75
2022/05/17 00:50:40;;;;;;;;;;;;;;;;;;5009420;28;19938;-75
2022/05/17 00:53:06;;;;;;;;;;;;;;;;;;5008732;28;20407;-75
2022/05/17 00:55:32;;;;;;;;;;;;;;;;;;4993883;28;20361;-75
2022/05/17 00:57:58;;;;;;;;;;;;;;;;;;4993629;28;19943;-75
2022/05/17 01:00:24;;;;;;;;;;;;;;;;;;4993810;28;19956;-75
2022/05/17 01:02:50;;;;;;;;;;;;;;;;;;4993351;28;19977;-75
2022/05/17 01:05:16;;;;;;;;;;;;;;;;;;4993596;28;20017;-76
2022/05/17 01:07:42;;;;;;;;;;;;;;;;;;5008556;28;19929;-77
2022/05/17 01:10:08;;;;;;;;;;;;;;;;;;4993165;28;19928;-75
2022/05/17 01:12:34;;;;;;;;;;;;;;;;;;5008692;28;19967;-76
2022/05/17 01:15:00;;;;;;;;;;;;;;;;;;4993487;28;20016;-75
2022/05/17 01:17:26;;;;;;;;;;;;;;;;;;5008736;28;19928;-76
2022/05/17 01:19:52;;;;;;;;;;;;;;;;;;5007906;28;19922;-75
2022/05/17 01:22:18;;;;;;;;;;;;;;;;;;4993569;28;19928;-75
2022/05/17 01:24:44;;;;;;;;;;;;;;;;;;4992759;28;19976;-75
2022/05/17 01:27:10;;;;;;;;;;;;;;;;;;4991551;28;19922;-76
2022/05/17 01:29:36;;;;;;;;;;;;;;;;;;4992856;28;19976;-75
2022/05/17 01:32:02;;;;;;;;;;;;;;;;;;5008241;28;19921;-75
2022/05/17 01:34:28;;;;;;;;;;;;;;;;;;5008223;28;20428;-75
2022/05/17 01:36:54;;;;;;;;;;;;;;;;;;5008061;28;20281;-75
2022/05/17 01:39:20;;;;;;;;;;;;;;;;;;4992771;28;20052;-75
2022/05/17 01:41:45;;;;;;;;;;;;;;;;;;4993407;28;19969;-75
2022/05/17 01:44:11;;;;;;;;;;;;;;;;;;4992025;28;19928;-75
2022/05/17 01:46:37;;;;;;;;;;;;;;;;;;4993004;28;19922;-75
2022/05/17 01:49:03;;;;;;;;;;;;;;;;;;5007648;28;19921;-75
2022/05/17 01:51:29;;;;;;;;;;;;;;;;;;4992083;28;20035;-75
2022/05/17 01:53:55;;;;;;;;;;;;;;;;;;4992176;28;19922;-74
2022/05/17 01:56:21;;;;;;;;;;;;;;;;;;4992495;28;20376;-75
2022/05/17 01:58:47;;;;;;;;;;;;;;;;;;5007657;28;19926;-75
2022/05/17 02:01:13;;;;;;;;;;;;;;;;;;4992529;28;19925;-75
2022/05/17 02:03:39;;;;;;;;;;;;;;;;;;5007633;28;19928;-75
2022/05/17 02:06:05;;;;;;;;;;;;;;;;;;4992148;28;19928;-75
2022/05/17 02:08:31;;;;;;;;;;;;;;;;;;4992095;28;19922;-75
2022/05/17 02:10:57;;;;;;;;;;;;;;;;;;4992239;28;19932;-75
2022/05/17 02:13:23;;;;;;;;;;;;;;;;;;5007616;28;20369;-76
2022/05/17 02:15:49;;;;;;;;;;;;;;;;;;4992046;28;20293;-75
2022/05/17 02:18:15;;;;;;;;;;;;;;;;;;4992202;28;20004;-75
2022/05/17 02:20:41;;;;;;;;;;;;;;;;;;4992007;28;19928;-75
2022/05/17 02:23:07;;;;;;;;;;;;;;;;;;5007367;28;19933;-75
2022/05/17 02:25:33;;;;;;;;;;;;;;;;;;4991829;28;19978;-76
2022/05/17 02:27:59;;;;;;;;;;;;;;;;;;4992033;28;19926;-76
2022/05/17 02:30:25;;;;;;;;;;;;;;;;;;4990840;28;19921;-75
2022/05/17 02:32:51;;;;;;;;;;;;;;;;;;5007198;28;19929;-75
2022/05/17 02:35:17;;;;;;;;;;;;;;;;;;4991558;28;19922;-74
2022/05/17 02:37:43;;;;;;;;;;;;;;;;;;4992093;28;19921;-76
2022/05/17 02:40:08;;;;;;;;;;;;;;;;;;5006868;28;19922;-75
2022/05/17 02:42:34;;;;;;;;;;;;;;;;;;4992093;28;19922;-75
2022/05/17 02:45:00;;;;;;;;;;;;;;;;;;5006747;28;19925;-75
2022/05/17 02:47:26;;;;;;;;;;;;;;;;;;4990931;28;20059;-74
2022/05/17 02:49:52;;;;;;;;;;;;;;;;;;5004770;28;19922;-75
2022/05/17 02:52:18;;;;;;;;;;;;;;;;;;4991483;28;19922;-74
2022/05/17 02:54:44;;;;;;;;;;;;;;;;;;4991855;28;19975;-74
2022/05/17 02:57:10;;;;;;;;;;;;;;;;;;4991257;28;20381;-74
2022/05/17 02:59:36;;;;;;;;;;;;;;;;;;4991707;28;20206;-75
2022/05/17 03:02:02;;;;;;;;;;;;;;;;;;4991622;28;19922;-75
2022/05/17 03:04:28;;;;;;;;;;;;;;;;;;4991914;28;20073;-76
2022/05/17 03:06:54;;;;;;;;;;;;;;;;;;5007269;28;19928;-75
2022/05/17 03:09:20;;;;;;;;;;;;;;;;;;4991460;28;19922;-75
2022/05/17 03:11:46;;;;;;;;;;;;;;;;;;4991795;28;19980;-76
2022/05/17 03:14:12;;;;;;;;;;;;;;;;;;4991118;28;20285;-75
2022/05/17 03:16:38;;;;;;;;;;;;;;;;;;5007246;28;19917;-75
2022/05/17 03:19:04;;;;;;;;;;;;;;;;;;4991449;28;19922;-75
2022/05/17 03:21:30;;;;;;;;;;;;;;;;;;4991454;28;19922;-75
2022/05/17 03:23:56;;;;;;;;;;;;;;;;;;4991460;28;19968;-76
2022/05/17 03:26:22;;;;;;;;;;;;;;;;;;4991654;28;20420;-75
2022/05/17 03:28:47;;;;;;;;;;;;;;;;;;4991797;28;20357;-75
2022/05/17 03:31:13;;;;;;;;;;;;;;;;;;5006533;28;19921;-75
2022/05/17 03:33:39;;;;;;;;;;;;;;;;;;4990017;28;20019;-75
2022/05/17 03:36:05;;;;;;;;;;;;;;;;;;4991490;28;19922;-76
2022/05/17 03:38:31;;;;;;;;;;;;;;;;;;4991691;28;19922;-75
2022/05/17 03:41:00;;;;;;;;;;;;;;;;;;5006884;28;19933;-75
2022/05/17 03:43:27;;;;;;;;;;;;;;;;;;4994873;28;19922;-75
2022/05/17 03:45:53;;;;;;;;;;;;;;;;;;4995215;28;19968;-75
2022/05/17 03:48:19;;;;;;;;;;;;;;;;;;5010348;28;19921;-75
2022/05/17 03:50:45;;;;;;;;;;;;;;;;;;5010980;28;19922;-75
2022/05/17 03:53:11;;;;;;;;;;;;;;;;;;4994451;28;19929;-75
2022/05/17 03:55:37;;;;;;;;;;;;;;;;;;4994972;28;20473;-75
2022/05/17 03:58:03;;;;;;;;;;;;;;;;;;4994549;28;19944;-76
2022/05/17 04:00:29;;;;;;;;;;;;;;;;;;5010311;28;19921;-75
2022/05/17 04:02:55;;;;;;;;;;;;;;;;;;5009707;28;19929;-75
2022/05/17 04:05:21;;;;;;;;;;;;;;;;;;5009645;28;19928;-75
2022/05/17 04:07:47;;;;;;;;;;;;;;;;;;5009864;28;19925;-76
2022/05/17 04:10:13;;;;;;;;;;;;;;;;;;4994206;28;19928;-75
2022/05/17 04:12:39;;;;;;;;;;;;;;;;;;5009994;28;19922;-75
2022/05/17 04:15:05;;;;;;;;;;;;;;;;;;4993852;28;19929;-76
2022/05/17 04:17:31;;;;;;;;;;;;;;;;;;4995119;28;20209;-75
2022/05/17 04:19:57;;;;;;;;;;;;;;;;;;5009891;28;19925;-75
2022/05/17 04:22:23;;;;;;;;;;;;;;;;;;4994584;28;20369;-76
2022/05/17 04:24:49;;;;;;;;;;;;;;;;;;4994417;28;20407;-76
2022/05/17 04:27:15;;;;;;;;;;;;;;;;;;5009316;28;19922;-75
2022/05/17 04:29:41;;;;;;;;;;;;;;;;;;4994645;28;20080;-76
2022/05/17 04:32:07;;;;;;;;;;;;;;;;;;5009484;28;19933;-75
2022/05/17 04:34:33;;;;;;;;;;;;;;;;;;4993691;28;19967;-77
2022/05/17 04:36:59;;;;;;;;;;;;;;;;;;4995507;28;19921;-77
2022/05/17 04:39:25;;;;;;;;;;;;;;;;;;4993541;28;20297;-78
2022/05/17 04:41:51;;;;;;;;;;;;;;;;;;5009711;28;20304;-75
2022/05/17 04:44:17;;;;;;;;;;;;;;;;;;5009278;28;19973;-74
2022/05/17 04:46:43;;;;;;;;;;;;;;;;;;4993958;28;19922;-74
2022/05/17 04:49:09;;;;;;;;;;;;;;;;;;4994081;28;19922;-74
2022/05/17 04:51:35;;;;;;;;;;;;;;;;;;5010183;28;19956;-74
2022/05/17 04:54:01;;;;;;;;;;;;;;;;;;4994293;28;20012;-73
2022/05/17 04:56:27;;;;;;;;;;;;;;;;;;4993566;28;19932;-73
2022/05/17 04:58:53;;;;;;;;;;;;;;;;;;4993598;28;19922;-73
2022/05/17 05:01:21;;;;;;;;;;;;;;;;;;4994057;28;19975;-73
2022/05/17 05:03:47;;;;;;;;;;;;;;;;;;4993397;28;19925;-76
2022/05/17 05:06:13;;;;;;;;;;;;;;;;;;4992622;28;19921;-76
2022/05/17 05:08:38;;;;;;;;;;;;;;;;;;4991972;28;19968;-76
2022/05/17 05:11:05;;;;;;;;;;;;;;;;;;5009331;28;20416;-75
2022/05/17 05:13:31;;;;;;;;;;;;;;;;;;5009709;28;19921;-78
2022/05/17 05:15:57;;;;;;;;;;;;;;;;;;5008323;28;19984;-74
2022/05/17 05:18:23;;;;;;;;;;;;;;;;;;4993037;28;19922;-74
2022/05/17 05:20:49;;;;;;;;;;;;;;;;;;4993166;28;19976;-75
2022/05/17 05:23:15;;;;;;;;;;;;;;;;;;5008166;28;20004;-75
2022/05/17 05:25:41;;;;;;;;;;;;;;;;;;5008580;28;19922;-76
2022/05/17 05:28:07;;;;;;;;;;;;;;;;;;4993997;28;20392;-75
2022/05/17 05:30:33;;;;;;;;;;;;;;;;;;4993805;28;19922;-76
2022/05/17 05:32:59;;;;;;;;;;;;;;;;;;5009630;28;19921;-75
2022/05/17 05:35:25;;;;;;;;;;;;;;;;;;5009620;28;19921;-75
2022/05/17 05:37:51;;;;;;;;;;;;;;;;;;4994329;28;20381;-75
2022/05/17 05:40:17;;;;;;;;;;;;;;;;;;4994393;28;20387;-76
2022/05/17 05:42:43;;;;;;;;;;;;;;;;;;4994230;28;19921;-75
2022/05/17 05:45:09;;;;;;;;;;;;;;;;;;4993980;28;19925;-75
2022/05/17 05:47:35;;;;;;;;;;;;;;;;;;4994116;28;19949;-75
2022/05/17 05:50:01;;;;;;;;;;;;;;;;;;5009972;28;20407;-75
2022/05/17 05:52:27;;;;;;;;;;;;;;;;;;4993825;28;20622;-75
2022/05/17 05:54:53;;;;;;;;;;;;;;;;;;5009757;28;20293;-75
2022/05/17 05:57:19;;;;;;;;;;;;;;;;;;4993876;28;20353;-75
2022/05/17 05:59:46;;;;;;;;;;;;;;;;;;4994171;28;19928;-76
2022/05/17 06:02:11;;;;;;;;;;;;;;;;;;5009399;28;19928;-75
2022/05/17 06:04:37;;;;;;;;;;;;;;;;;;4993052;28;20020;-76
2022/05/17 06:07:03;;;;;;;;;;;;;;;;;;4993781;28;19921;-75
2022/05/17 06:09:29;;;;;;;;;;;;;;;;;;5008278;28;19929;-76
2022/05/17 06:11:55;;;;;;;;;;;;;;;;;;4993173;28;20105;-76
2022/05/17 06:14:21;;;;;;;;;;;;;;;;;;5009165;28;19929;-76
2022/05/17 06:16:47;;;;;;;;;;;;;;;;;;4993939;28;20072;-76
2022/05/17 06:19:13;;;;;;;;;;;;;;;;;;4993912;28;19928;-75
2022/05/17 06:21:40;;;;;;;;;;;;;;;;;;4993385;28;19965;-76
2022/05/17 06:24:06;;;;;;;;;;;;;;;;;;4993744;28;19922;-76
2022/05/17 06:26:32;;;;;;;;;;;;;;;;;;4993467;28;19928;-76
2022/05/17 06:28:58;;;;;;;;;;;;;;;;;;4993653;28;19929;-76
2022/05/17 06:31:24;;;;;;;;;;;;;;;;;;5008167;28;19976;-77
2022/05/17 06:33:50;;;;;;;;;;;;;;;;;;5008620;28;20008;-76
2022/05/17 06:36:16;;;;;;;;;;;;;;;;;;4993096;28;19922;-76
2022/05/17 06:38:42;;;;;;;;;;;;;;;;;;4993460;28;19922;-75
2022/05/17 06:41:08;;;;;;;;;;;;;;;;;;5008860;28;19922;-76
2022/05/17 06:43:34;;;;;;;;;;;;;;;;;;4992846;28;20012;-76
2022/05/17 06:46:00;;;;;;;;;;;;;;;;;;5008218;28;20269;-76
2022/05/17 06:48:26;;;;;;;;;;;;;;;;;;4992976;28;19929;-76
2022/05/17 06:50:52;;;;;;;;;;;;;;;;;;5008540;28;19977;-75
2022/05/17 06:53:18;;;;;;;;;;;;;;;;;;4992601;28;19944;-76
2022/05/17 06:55:43;;;;;;;;;;;;;;;;;;4993296;28;19929;-75
2022/05/17 06:58:09;;;;;;;;;;;;;;;;;;5008734;28;20012;-76
2022/05/17 07:00:36;;;;;;;;;;;;;;;;;;5007816;28;19922;-76
2022/05/17 07:03:01;;;;;;;;;;;;;;;;;;4993221;28;19921;-76
2022/05/17 07:05:27;;;;;;;;;;;;;;;;;;5007848;28;19980;-76
2022/05/17 07:07:53;;;;;;;;;;;;;;;;;;4992968;28;19964;-76
2022/05/17 07:13:12;;;;;;;;;;;;;;;;;;4993267;28;19921;-76
2022/05/17 07:15:38;;;;;;;;;;;;;;;;;;4991355;28;19925;-76
2022/05/17 07:18:04;;;;;;;;;;;;;;;;;;4996092;28;20305;-75
2022/05/17 07:20:30;;;;;;;;;;;;;;;;;;4996699;28;19922;-76
2022/05/17 07:22:55;;;;;;;;;;;;;;;;;;5012590;28;19922;-76
2022/05/17 07:25:21;;;;;;;;;;;;;;;;;;4996498;28;20012;-76
2022/05/17 07:27:47;;;;;;;;;;;;;;;;;;4995492;28;20361;-77
2022/05/17 07:30:13;;;;;;;;;;;;;;;;;;4996783;28;20016;-76
2022/05/17 07:32:40;;;;;;;;;;;;;;;;;;4996421;28;19948;-76
2022/05/17 07:35:07;;;;;;;;;;;;;;;;;;4996034;28;19961;-76
2022/05/17 07:37:32;;;;;;;;;;;;;;;;;;4996547;28;20261;-78
2022/05/17 07:39:59;;;;;;;;;;;;;;;;;;5012001;28;20009;-77
2022/05/17 07:42:25;;;;;;;;;;;;;;;;;;5011203;28;19972;-76
2022/05/17 07:44:51;;;;;;;;;;;;;;;;;;5011479;28;20008;-76
2022/05/17 07:47:17;;;;;;;;;;;;;;;;;;4996247;28;19926;-76
2022/05/17 07:49:43;;;;;;;;;;;;;;;;;;4994688;28;19917;-77
2022/05/17 07:52:09;;;;;;;;;;;;;;;;;;5011485;28;19961;-76
2022/05/17 07:54:37;;;;;;;;;;;;;;;;;;4995735;28;20361;-76
2022/05/17 07:57:03;;;;;;;;;;;;;;;;;;4994988;28;19969;-76
2022/05/17 07:59:29;;;;;;;;;;;;;;;;;;4995379;28;19929;-76
2022/05/17 08:01:55;;;;;;;;;;;;;;;;;;5010851;28;19921;-75
2022/05/17 08:04:23;;;;;;;;;;;;;;;;;;5010938;28;19968;-76
2022/05/17 08:06:49;;;;;;;;;;;;;;;;;;4995858;28;19938;-77
2022/05/17 08:09:15;;;;;;;;;;;;;;;;;;5010505;28;19928;-75
2022/05/17 08:11:41;;;;;;;;;;;;;;;;;;4995368;28;19922;-76
2022/05/17 08:14:08;;;;;;;;;;;;;;;;;;4995418;28;20379;-78
2022/05/17 08:16:33;;;;;;;;;;;;;;;;;;5011177;28;19921;-77
2022/05/17 08:18:59;;;;;;;;;;;;;;;;;;4994559;28;20415;-79
2022/05/17 08:21:25;;;;;;;;;;;;;;;;;;4993222;28;20427;-76
2022/05/17 08:23:51;;;;;;;;;;;;;;;;;;4995797;28;20329;-76
2022/05/17 08:29:02;;;;;;;;;;;;;;;;;;4994340;28;19948;-75
2022/05/17 08:31:28;;;;;;;;;;;;;;;;;;4995267;28;20004;-76
2022/05/17 08:33:54;;;;;;;;;;;;;;;;;;4995427;28;19922;-76
2022/05/17 08:36:20;;;;;;;;;;;;;;;;;;5010232;28;19922;-75
2022/05/17 08:38:46;;;;;;;;;;;;;;;;;;5010203;28;19921;-76
2022/05/17 08:41:12;;;;;;;;;;;;;;;;;;4994620;28;19976;-75
2022/05/17 08:43:38;;;;;;;;;;;;;;;;;;4995139;28;19926;-75
2022/05/17 08:46:04;;;;;;;;;;;;;;;;;;4995605;28;20287;-75
2022/05/17 08:48:30;;;;;;;;;;;;;;;;;;4993693;28;20324;-75
2022/05/17 08:50:56;;;;;;;;;;;;;;;;;;4995111;28;20361;-74
2022/05/17 08:53:22;;;;;;;;;;;;;;;;;;5010540;28;19925;-74
2022/05/17 08:55:49;;;;;;;;;;;;;;;;;;5010353;28;19979;-75
2022/05/17 08:58:15;;;;;;;;;;;;;;;;;;4994822;28;19922;-76
2022/05/17 09:00:41;;;;;;;;;;;;;;;;;;5009813;28;19928;-76
2022/05/17 09:03:07;;;;;;;;;;;;;;;;;;4994057;28;19932;-75
2022/05/17 09:05:33;;;;;;;;;;;;;;;;;;4994194;28;19925;-76
2022/05/17 09:08:00;;;;;;;;;;;;;;;;;;4994559;28;19928;-76
2022/05/17 09:10:26;;;;;;;;;;;;;;;;;;4993714;28;19922;-75
2022/05/17 09:12:52;;;;;;;;;;;;;;;;;;4994104;28;20357;-75
2022/05/17 09:15:18;;;;;;;;;;;;;;;;;;5009293;28;19921;-75
2022/05/17 09:17:44;;;;;;;;;;;;;;;;;;4994178;28;19926;-75
2022/05/17 09:20:10;;;;;;;;;;;;;;;;;;4994189;28;19922;-76
2022/05/17 09:22:36;;;;;;;;;;;;;;;;;;4993828;28;19921;-76
2022/05/17 09:25:02;;;;;;;;;;;;;;;;;;4993981;28;19928;-74
2022/05/17 09:27:29;;;;;;;;;;;;;;;;;;4993884;28;19928;-76
2022/05/17 09:29:56;;;;;;;;;;;;;;;;;;5009771;28;19929;-75
2022/05/17 09:32:22;;;;;;;;;;;;;;;;;;4993802;28;19944;-75
2022/05/17 09:34:48;;;;;;;;;;;;;;;;;;4992899;28;19922;-77
2022/05/17 09:37:14;;;;;;;;;;;;;;;;;;5009092;28;19922;-77
2022/05/17 09:39:40;;;;;;;;;;;;;;;;;;4991978;28;20020;-76
2022/05/17 09:42:06;;;;;;;;;;;;;;;;;;4993043;28;19928;-76
2022/05/17 09:44:33;;;;;;;;;;;;;;;;;;5008835;28;19921;-77
2022/05/17 09:46:59;;;;;;;;;;;;;;;;;;4994056;28;19965;-74
2022/05/17 09:54:54;;;;;;;;;;;;;;;;;;4993693;28;20378;-76
2022/05/17 09:57:21;;;;;;;;;;;;;;;;;;4993617;28;19969;-76
2022/05/17 09:59:47;;;;;;;;;;;;;;;;;;4992116;28;19925;-77
2022/05/17 10:02:13;;;;;;;;;;;;;;;;;;5009187;28;19928;-77
2022/05/17 10:04:39;;;;;;;;;;;;;;;;;;4993643;28;20416;-77
2022/05/17 10:07:05;;;;;;;;;;;;;;;;;;5009183;28;19922;-77
2022/05/17 10:09:32;;;;;;;;;;;;;;;;;;5008589;28;20365;-77
2022/05/17 10:11:58;;;;;;;;;;;;;;;;;;4993805;28;19926;-76
2022/05/17 10:14:24;;;;;;;;;;;;;;;;;;4994100;28;20280;-77
2022/05/17 10:16:50;;;;;;;;;;;;;;;;;;4993823;28;19922;-75
2022/05/17 10:19:17;;;;;;;;;;;;;;;;;;4993351;28;20277;-76
2022/05/17 10:21:43;;;;;;;;;;;;;;;;;;4993619;28;20012;-75
2022/05/17 10:24:09;;;;;;;;;;;;;;;;;;4993606;28;19983;-77
2022/05/17 10:26:35;;;;;;;;;;;;;;;;;;4993630;28;19932;-73
2022/05/17 10:29:01;;;;;;;;;;;;;;;;;;4993524;28;20373;-73
2022/05/17 10:31:27;;;;;;;;;;;;;;;;;;4993801;28;20416;-73
2022/05/17 10:33:54;;;;;;;;;;;;;;;;;;4992928;28;20069;-73
2022/05/17 10:36:20;;;;;;;;;;;;;;;;;;4993836;28;19922;-73
2022/05/17 10:38:46;;;;;;;;;;;;;;;;;;4993485;28;20427;-73
2022/05/17 10:41:12;;;;;;;;;;;;;;;;;;4992852;28;19953;-73
2022/05/17 10:43:38;;;;;;;;;;;;;;;;;;4992976;28;19933;-74
2022/05/17 10:46:04;;;;;;;;;;;;;;;;;;4993099;28;19926;-73
2022/05/17 10:48:30;;;;;;;;;;;;;;;;;;4993206;28;19972;-73
2022/05/17 10:50:56;;;;;;;;;;;;;;;;;;4993089;28;19921;-72
2022/05/17 10:53:22;;;;;;;;;;;;;;;;;;4993231;28;19922;-73
2022/05/17 10:55:48;;;;;;;;;;;;;;;;;;4992617;28;19921;-73
2022/05/17 10:58:14;;;;;;;;;;;;;;;;;;4993435;28;19968;-73
2022/05/17 11:00:40;;;;;;;;;;;;;;;;;;4992831;28;19926;-73
2022/05/17 11:03:07;;;;;;;;;;;;;;;;;;4993756;28;19928;-74
2022/05/17 11:05:34;;;;;;;;;;;;;;;;;;4991964;28;19969;-73
2022/05/17 11:08:00;;;;;;;;;;;;;;;;;;4993237;28;20356;-73
2022/05/17 11:10:26;;;;;;;;;;;;;;;;;;4992991;28;19921;-74
2022/05/17 11:12:52;;;;;;;;;;;;;;;;;;4993161;28;20024;-74
2022/05/17 11:15:18;;;;;;;;;;;;;;;;;;4993058;28;19961;-73
2022/05/17 11:17:50;;;;;;;;;;;;;;;;;;4992725;28;20254;-72
2022/05/17 11:20:16;;;;;;;;;;;;;;;;;;4990189;28;19929;-72
2022/05/17 11:22:42;;;;;;;;;;;;;;;;;;5007774;28;19922;-73
2022/05/17 11:25:08;;;;;;;;;;;;;;;;;;4992423;28;20028;-74
2022/05/17 11:27:34;;;;;;;;;;;;;;;;;;5008193;28;19925;-73
2022/05/17 11:30:00;;;;;;;;;;;;;;;;;;4992642;28;20448;-73
2022/05/17 11:32:26;;;;;;;;;;;;;;;;;;4992880;28;20353;-73
2022/05/17 11:34:53;;;;;;;;;;;;;;;;;;4991386;28;20276;-72
2022/05/17 11:37:19;;;;;;;;;;;;;;;;;;4993198;28;19972;-73
2022/05/17 11:39:48;;;;;;;;;;;;;;;;;;4992559;28;20277;-73
2022/05/17 11:42:14;;;;;;;;;;;;;;;;;;4992960;28;19929;-73
2022/05/17 11:44:41;;;;;;;;;;;;;;;;;;5007182;28;19925;-73
2022/05/17 11:47:06;;;;;;;;;;;;;;;;;;4992834;28;19921;-73
2022/05/17 11:49:33;;;;;;;;;;;;;;;;;;4992539;28;19922;-72
2022/05/17 11:51:58;;;;;;;;;;;;;;;;;;4991747;28;19922;-71
2022/05/17 11:54:24;;;;;;;;;;;;;;;;;;4991836;28;20488;-72
2022/05/17 11:56:51;;;;;;;;;;;;;;;;;;4991369;28;20269;-72
2022/05/17 11:59:17;;;;;;;;;;;;;;;;;;4992442;28;20355;-71
2022/05/17 12:01:43;;;;;;;;;;;;;;;;;;4991589;28;19937;-72
2022/05/17 12:04:09;;;;;;;;;;;;;;;;;;4994694;28;19973;-72
2022/05/17 12:06:39;;;;;;;;;;;;;;;;;;4996249;28;19976;-73
2022/05/17 12:09:05;;;;;;;;;;;;;;;;;;4995544;28;19918;-72
2022/05/17 12:11:30;;;;;;;;;;;;;;;;;;4995778;28;19929;-72
2022/05/17 12:13:56;;;;;;;;;;;;;;;;;;4995058;28;19921;-73
2022/05/17 12:16:22;;;;;;;;;;;;;;;;;;4995614;28;19973;-73
2022/05/17 12:18:50;;;;;;;;;;;;;;;;;;4994759;28;19921;-71
2022/05/17 12:21:16;;;;;;;;;;;;;;;;;;4995833;28;19976;-73
2022/05/17 12:23:42;;;;;;;;;;;;;;;;;;4995851;28;19969;-71
2022/05/17 12:26:07;;;;;;;;;;;;;;;;;;4995773;28;19925;-72
2022/05/17 12:28:33;;;;;;;;;;;;;;;;;;4996140;28;19921;-73
2022/05/17 12:31:02;;;;;;;;;;;;;;;;;;4995383;28;19975;-73
2022/05/17 12:33:29;;;;;;;;;;;;;;;;;;4995585;28;19971;-71
2022/05/17 12:35:55;;;;;;;;;;;;;;;;;;4995306;28;19929;-71
2022/05/17 12:43:50;;;;;;;;;;;;;;;;;;4994421;28;20369;-72
2022/05/17 12:46:16;;;;;;;;;;;;;;;;;;4994872;28;20025;-71
2022/05/17 12:48:42;;;;;;;;;;;;;;;;;;4995469;28;19921;-71
2022/05/17 12:51:08;;;;;;;;;;;;;;;;;;4994915;28;20289;-71
2022/05/17 12:53:34;;;;;;;;;;;;;;;;;;4995518;28;20460;-71
2022/05/17 12:56:00;;;;;;;;;;;;;;;;;;4994695;28;19980;-72
2022/05/17 12:58:26;;;;;;;;;;;;;;;;;;4995174;28;20387;-71
2022/05/17 13:00:52;;;;;;;;;;;;;;;;;;4994988;28;19922;-71
2022/05/17 13:03:18;;;;;;;;;;;;;;;;;;4995147;28;20009;-72
2022/05/17 13:05:48;;;;;;;;;;;;;;;;;;4994862;28;20028;-71
2022/05/17 13:08:14;;;;;;;;;;;;;;;;;;4994872;28;19922;-71
2022/05/17 13:10:40;;;;;;;;;;;;;;;;;;4995362;28;20016;-71
2022/05/17 13:13:06;;;;;;;;;;;;;;;;;;4994433;28;20432;-71
2022/05/17 13:15:31;;;;;;;;;;;;;;;;;;4993750;28;19972;-71
2022/05/17 13:17:57;;;;;;;;;;;;;;;;;;4994167;28;19952;-71
2022/05/17 13:20:23;;;;;;;;;;;;;;;;;;4994831;28;19926;-71
2022/05/17 13:22:54;;;;;;;;;;;;;;;;;;4994407;28;19976;-72
2022/05/17 13:25:20;;;;;;;;;;;;;;;;;;4994748;28;19922;-71
2022/05/17 13:27:46;;;;;;;;;;;;;;;;;;5009872;28;20036;-71
2022/05/17 13:30:12;;;;;;;;;;;;;;;;;;4994502;28;19925;-71
2022/05/17 13:32:38;;;;;;;;;;;;;;;;;;5009922;28;20361;-71
2022/05/17 13:35:04;;;;;;;;;;;;;;;;;;4994338;28;19922;-71
2022/05/17 13:37:31;;;;;;;;;;;;;;;;;;4994460;28;19922;-71
2022/05/17 13:40:01;;;;;;;;;;;;;;;;;;5009217;28;19921;-71
2022/05/17 13:42:28;;;;;;;;;;;;;;;;;;4994264;28;19926;-72
2022/05/17 13:44:54;;;;;;;;;;;;;;;;;;4993784;28;20254;-72
2022/05/17 13:47:20;;;;;;;;;;;;;;;;;;4994054;28;19976;-71
2022/05/17 13:49:46;;;;;;;;;;;;;;;;;;4994455;28;20276;-71
2022/05/17 13:52:12;;;;;;;;;;;;;;;;;;4992613;28;19917;-72
2022/05/17 13:54:38;;;;;;;;;;;;;;;;;;4993967;28;19926;-72
2022/05/17 13:57:04;;;;;;;;;;;;;;;;;;4992406;28;19929;-71
2022/05/17 13:59:30;;;;;;;;;;;;;;;;;;4993472;28;19922;-72
2022/05/17 14:01:56;;;;;;;;;;;;;;;;;;4993137;28;19936;-71
2022/05/17 14:04:21;;;;;;;;;;;;;;;;;;4993676;28;19987;-72
2022/05/17 14:06:48;;;;;;;;;;;;;;;;;;4993184;28;19925;-72
2022/05/17 14:12:00;;;;;;;;;;;;;;;;;;4993014;28;20481;-72
2022/05/17 14:14:26;;;;;;;;;;;;;;;;;;4992731;28;19921;-72
2022/05/17 14:16:52;;;;;;;;;;;;;;;;;;4992089;28;19928;-72
2022/05/17 14:19:18;;;;;;;;;;;;;;;;;;4993877;28;19926;-72
2022/05/17 14:21:44;;;;;;;;;;;;;;;;;;4993414;28;19922;-72
2022/05/17 14:24:14;;;;;;;;;;;;;;;;;;4992960;28;20041;-72
2022/05/17 14:26:40;;;;;;;;;;;;;;;;;;4992928;28;19922;-70
2022/05/17 14:29:06;;;;;;;;;;;;;;;;;;4992831;28;19928;-71
2022/05/17 14:31:32;;;;;;;;;;;;;;;;;;4993459;28;20020;-73
2022/05/17 14:34:00;;;;;;;;;;;;;;;;;;5007852;28;20016;-73
2022/05/17 14:36:25;;;;;;;;;;;;;;;;;;4992517;28;19972;-72
2022/05/17 14:38:51;;;;;;;;;;;;;;;;;;4992663;28;20006;-72
2022/05/17 14:41:17;;;;;;;;;;;;;;;;;;4993177;28;19925;-73
2022/05/17 14:43:43;;;;;;;;;;;;;;;;;;4992459;28;19928;-72
2022/05/17 14:46:09;;;;;;;;;;;;;;;;;;4992191;28;19922;-72
2022/05/17 14:48:35;;;;;;;;;;;;;;;;;;4993149;28;20401;-72
2022/05/17 14:51:01;;;;;;;;;;;;;;;;;;4992728;28;19929;-71
2022/05/17 14:53:27;;;;;;;;;;;;;;;;;;4992916;28;20365;-72
2022/05/17 14:55:53;;;;;;;;;;;;;;;;;;5008353;28;19922;-73
2022/05/17 14:58:19;;;;;;;;;;;;;;;;;;4992112;28;20487;-73
2022/05/17 15:00:45;;;;;;;;;;;;;;;;;;4992861;28;20020;-73
2022/05/17 15:03:11;;;;;;;;;;;;;;;;;;4992578;28;19977;-72
2022/05/17 15:05:37;;;;;;;;;;;;;;;;;;4992651;28;19972;-72
2022/05/17 15:08:03;;;;;;;;;;;;;;;;;;4992044;28;19922;-72
2022/05/17 15:10:29;;;;;;;;;;;;;;;;;;4992234;28;19922;-72
2022/05/17 15:12:55;;;;;;;;;;;;;;;;;;4992604;28;20407;-73
2022/05/17 15:15:22;;;;;;;;;;;;;;;;;;4992521;28;20020;-72
2022/05/17 15:17:47;;;;;;;;;;;;;;;;;;4992201;28;19981;-75
2022/05/17 15:20:13;;;;;;;;;;;;;;;;;;4991665;28;19922;-71
2022/05/17 15:22:40;;;;;;;;;;;;;;;;;;4991891;28;19925;-70
2022/05/17 15:25:06;;;;;;;;;;;;;;;;;;4992001;28;19921;-70
2022/05/17 15:27:32;;;;;;;;;;;;;;;;;;4992664;28;20365;-70
2022/05/17 15:29:58;;;;;;;;;;;;;;;;;;4992208;28;20423;-70
2022/05/17 15:32:24;;;;;;;;;;;;;;;;;;4992718;28;19928;-70
2022/05/17 15:34:50;;;;;;;;;;;;;;;;;;5007503;28;20361;-70
2022/05/17 15:37:17;;;;;;;;;;;;;;;;;;5007270;28;19964;-69
2022/05/17 15:39:43;;;;;;;;;;;;;;;;;;4995643;28;19928;-70
2022/05/17 15:42:09;;;;;;;;;;;;;;;;;;4996320;28;20012;-71
2022/05/17 15:44:35;;;;;;;;;;;;;;;;;;4995246;28;19921;-70
2022/05/17 15:55:15;;;;;;;;;;;;;;;;;;4996355;28;19944;-70
2022/05/17 15:57:41;;;;;;;;;;;;;;;;;;5011510;28;20367;-70
2022/05/17 16:00:07;;;;;;;;;;;;;;;;;;4996309;28;20031;-69
2022/05/17 16:02:33;;;;;;;;;;;;;;;;;;4995595;28;19973;-69
2022/05/17 16:05:00;;;;;;;;;;;;;;;;;;4995262;28;19922;-72
2022/05/17 16:10:11;;;;;;;;;;;;;;;;;;4995679;28;19976;-70
2022/05/17 16:12:37;;;;;;;;;;;;;;;;;;4995940;28;19921;-70
2022/05/17 16:15:03;;;;;;;;;;;;;;;;;;4995400;28;19929;-70
2022/05/17 16:17:29;;;;;;;;;;;;;;;;;;5011535;28;19976;-67
2022/05/17 16:19:55;;;;;;;;;;;;;;;;;;4996060;28;19921;-70
2022/05/17 16:22:21;;;;;;;;;;;;;;;;;;4995680;28;20384;-69
2022/05/17 16:24:47;;;;;;;;;;;;;;;;;;4994846;28;19928;-70
2022/05/17 16:27:13;;;;;;;;;;;;;;;;;;4995242;28;19921;-70
2022/05/17 16:29:39;;;;;;;;;;;;;;;;;;5010835;28;20250;-70
2022/05/17 16:32:07;;;;;;;;;;;;;;;;;;4995578;28;20008;-70
2022/05/17 16:34:35;;;;;;;;;;;;;;;;;;4995879;28;19921;-71
2022/05/17 16:37:01;;;;;;;;;;;;;;;;;;4995478;28;20495;-69
2022/05/17 16:39:27;;;;;;;;;;;;;;;;;;4993699;28;19969;-73
2022/05/17 16:41:55;;;;;;;;;;;;;;;;;;5009906;28;19975;-72
2022/05/17 16:44:21;;;;;;;;;;;;;;;;;;4994686;28;19922;-72
2022/05/17 16:46:47;;;;;;;;;;;;;;;;;;4995113;28;20373;-72
2022/05/17 16:49:13;;;;;;;;;;;;;;;;;;4993725;28;20473;-73
2022/05/17 16:51:39;;;;;;;;;;;;;;;;;;5010730;28;19925;-70
2022/05/17 16:54:05;;;;;;;;;;;;;;;;;;4994900;28;19929;-70
2022/05/17 16:56:30;;;;;;;;;;;;;;;;;;4995032;28;19996;-71
2022/05/17 16:58:56;;;;;;;;;;;;;;;;;;5010096;28;19922;-72
2022/05/17 17:01:22;;;;;;;;;;;;;;;;;;4994484;28;20253;-70
2022/05/17 17:03:48;;;;;;;;;;;;;;;;;;5010057;28;19931;-71
2022/05/17 17:06:14;;;;;;;;;;;;;;;;;;4993771;28;20020;-71
2022/05/17 17:08:40;;;;;;;;;;;;;;;;;;4992883;28;20049;-72